Roi Et, Thailand

9:48 PM ICT on August 29, 2016 (GMT +0700)
Roiet | | Change Station

Elev 449 ft 16.12 °N, 103.77 °E | Updated 48 minutes ago

Partly Cloudy
Partly Cloudy
81 °F
Feels Like 86 °F
N
7
Wind Variable Wind from South

Today
High -- | Low -- °F
--% Chance of Precip.
Yesterday
High -- | Low -- °F
Precip. -- in
Pressure 29.77 in
Visibility 5.0 miles
Clouds Few 2200 ft
Heat Index 86 °F
Dew Point 75 °F
Humidity 84%
Rainfall 0.00 in
Snow Depth Not available.
5:51 AM 6:20 PM
Waning Crescent, 8% visible
METAR VTUV 291400Z 18006KT 8000 FEW022 27/24 Q1008 A2976 INFO O RWY 18
Pressure 29.77 in
Visibility 5.0 miles
Clouds Few 2200 ft
Heat Index 86 °F
Dew Point 75 °F
Humidity 84%
Rainfall 0.00 in
Snow Depth Not available.
5:51 AM 6:20 PM
Waning Crescent, 8% visible
METAR VTUV 291400Z 18006KT 8000 FEW022 27/24 Q1008 A2976 INFO O RWY 18

10-Day Weather Forecast

No radar image for this location.
×

Almanac

Astronomy

Aug. 29, 2016 Rise Set
Actual Time
Civil Twilight
Nautical Twilight
Astronomical Twilight
Moon
Length of Visible Light
Length of Day
Tomorrow will be .
, % of the Moon is Illuminated

Today's Extremes

Country Highs Country Lows

Community

WunderPhotos

Upload Photos

1,935,840 photos uploaded!

WunderBlog® & News

Nearby

Air Quality

  Air Quality AQ Index Pollutant
Not available.

Snow Depth

Station Depth Elevation

Earthquake Activity

City Distance Mag. Time & Date
Minimum magnitude displayed is 2.5.

Coastal Water Temperatures

Place Temperature

Stations

Nearby Weather Stations

Station Location Temp. Windchill Dew Point Humidity Wind Precip. Elev Updated Type